sensor_id;sensor_type;location;lat;lon;timestamp;P1;durP1;ratioP1;P2;durP2;ratioP2
46835;SDS011;32573;51.290;6.926;2023-07-02T00:00:28;2.78;;;1.20;;
46835;SDS011;32573;51.290;6.926;2023-07-02T00:02:56;3.50;;;1.20;;
46835;SDS011;32573;51.290;6.926;2023-07-02T00:05:27;3.08;;;1.50;;
46835;SDS011;32573;51.290;6.926;2023-07-02T00:07:55;3.40;;;1.48;;
46835;SDS011;32573;51.290;6.926;2023-07-02T00:10:24;2.55;;;1.27;;
46835;SDS011;32573;51.290;6.926;2023-07-02T00:12:52;4.05;;;1.50;;
46835;SDS011;32573;51.290;6.926;2023-07-02T00:15:21;3.88;;;1.75;;
46835;SDS011;32573;51.290;6.926;2023-07-02T00:17:49;4.65;;;1.88;;
46835;SDS011;32573;51.290;6.926;2023-07-02T00:20:18;3.67;;;1.67;;
46835;SDS011;32573;51.290;6.926;2023-07-02T00:22:48;3.92;;;1.50;;
46835;SDS011;32573;51.290;6.926;2023-07-02T00:25:17;3.42;;;1.40;;
46835;SDS011;32573;51.290;6.926;2023-07-02T00:27:45;3.10;;;1.40;;
46835;SDS011;32573;51.290;6.926;2023-07-02T00:30:14;3.30;;;1.40;;
46835;SDS011;32573;51.290;6.926;2023-07-02T00:32:42;3.67;;;1.40;;
46835;SDS011;32573;51.290;6.926;2023-07-02T00:35:11;4.47;;;1.85;;
46835;SDS011;32573;51.290;6.926;2023-07-02T00:37:40;4.35;;;1.60;;
46835;SDS011;32573;51.290;6.926;2023-07-02T00:40:10;3.85;;;1.60;;
46835;SDS011;32573;51.290;6.926;2023-07-02T00:42:39;3.13;;;1.42;;
46835;SDS011;32573;51.290;6.926;2023-07-02T00:45:08;3.42;;;1.70;;
46835;SDS011;32573;51.290;6.926;2023-07-02T00:47:37;4.07;;;1.60;;
46835;SDS011;32573;51.290;6.926;2023-07-02T00:50:06;4.35;;;1.58;;
46835;SDS011;32573;51.290;6.926;2023-07-02T00:52:36;3.42;;;1.50;;
46835;SDS011;32573;51.290;6.926;2023-07-02T00:55:06;3.00;;;1.38;;
46835;SDS011;32573;51.290;6.926;2023-07-02T00:57:36;3.20;;;1.50;;
46835;SDS011;32573;51.290;6.926;2023-07-02T01:00:08;3.28;;;1.50;;
46835;SDS011;32573;51.290;6.926;2023-07-02T01:02:37;3.65;;;1.40;;
46835;SDS011;32573;51.290;6.926;2023-07-02T01:05:06;4.13;;;1.42;;
46835;SDS011;32573;51.290;6.926;2023-07-02T01:07:34;5.20;;;1.80;;
46835;SDS011;32573;51.290;6.926;2023-07-02T01:10:03;3.45;;;1.35;;
46835;SDS011;32573;51.290;6.926;2023-07-02T01:12:32;3.30;;;1.38;;
46835;SDS011;32573;51.290;6.926;2023-07-02T01:15:04;4.18;;;1.48;;
46835;SDS011;32573;51.290;6.926;2023-07-02T01:17:34;3.75;;;1.45;;
46835;SDS011;32573;51.290;6.926;2023-07-02T01:20:10;3.97;;;1.60;;
46835;SDS011;32573;51.290;6.926;2023-07-02T01:22:40;4.18;;;1.58;;
46835;SDS011;32573;51.290;6.926;2023-07-02T01:25:09;4.28;;;1.77;;
46835;SDS011;32573;51.290;6.926;2023-07-02T01:27:38;4.30;;;1.65;;
46835;SDS011;32573;51.290;6.926;2023-07-02T01:30:07;4.18;;;1.60;;
46835;SDS011;32573;51.290;6.926;2023-07-02T01:32:37;3.63;;;1.65;;
46835;SDS011;32573;51.290;6.926;2023-07-02T01:35:07;4.65;;;2.00;;
46835;SDS011;32573;51.290;6.926;2023-07-02T01:37:37;5.35;;;1.95;;
46835;SDS011;32573;51.290;6.926;2023-07-02T01:40:06;6.45;;;2.08;;
46835;SDS011;32573;51.290;6.926;2023-07-02T01:42:36;3.65;;;1.63;;
46835;SDS011;32573;51.290;6.926;2023-07-02T01:45:06;5.53;;;2.10;;
46835;SDS011;32573;51.290;6.926;2023-07-02T01:47:35;7.15;;;2.22;;
46835;SDS011;32573;51.290;6.926;2023-07-02T01:50:04;5.30;;;2.55;;
46835;SDS011;32573;51.290;6.926;2023-07-02T01:52:34;5.55;;;2.25;;
46835;SDS011;32573;51.290;6.926;2023-07-02T01:55:04;6.38;;;2.60;;
46835;SDS011;32573;51.290;6.926;2023-07-02T01:57:33;4.80;;;2.10;;
46835;SDS011;32573;51.290;6.926;2023-07-02T02:00:01;4.45;;;1.83;;
46835;SDS011;32573;51.290;6.926;2023-07-02T02:02:41;5.50;;;2.08;;
46835;SDS011;32573;51.290;6.926;2023-07-02T02:05:11;5.28;;;2.15;;
46835;SDS011;32573;51.290;6.926;2023-07-02T02:07:39;6.35;;;2.40;;
46835;SDS011;32573;51.290;6.926;2023-07-02T02:10:10;6.05;;;2.22;;
46835;SDS011;32573;51.290;6.926;2023-07-02T02:12:38;5.95;;;2.33;;
46835;SDS011;32573;51.290;6.926;2023-07-02T02:15:07;6.13;;;2.53;;
46835;SDS011;32573;51.290;6.926;2023-07-02T02:17:36;5.53;;;2.30;;
46835;SDS011;32573;51.290;6.926;2023-07-02T02:20:06;4.95;;;2.30;;
46835;SDS011;32573;51.290;6.926;2023-07-02T02:22:36;5.65;;;2.60;;
46835;SDS011;32573;51.290;6.926;2023-07-02T02:25:05;5.40;;;2.30;;
46835;SDS011;32573;51.290;6.926;2023-07-02T02:27:35;6.25;;;2.63;;
46835;SDS011;32573;51.290;6.926;2023-07-02T02:30:04;6.53;;;2.80;;
46835;SDS011;32573;51.290;6.926;2023-07-02T02:32:35;6.97;;;2.92;;
46835;SDS011;32573;51.290;6.926;2023-07-02T02:35:08;7.45;;;2.70;;
46835;SDS011;32573;51.290;6.926;2023-07-02T02:37:38;6.65;;;3.17;;
46835;SDS011;32573;51.290;6.926;2023-07-02T02:40:08;8.75;;;3.28;;
46835;SDS011;32573;51.290;6.926;2023-07-02T02:42:39;7.07;;;2.75;;
46835;SDS011;32573;51.290;6.926;2023-07-02T02:45:08;7.13;;;2.97;;
46835;SDS011;32573;51.290;6.926;2023-07-02T02:47:37;9.40;;;3.85;;
46835;SDS011;32573;51.290;6.926;2023-07-02T02:50:06;9.52;;;3.45;;
46835;SDS011;32573;51.290;6.926;2023-07-02T02:52:36;6.57;;;2.97;;
46835;SDS011;32573;51.290;6.926;2023-07-02T02:55:05;6.70;;;3.08;;
46835;SDS011;32573;51.290;6.926;2023-07-02T02:57:35;7.05;;;3.10;;
46835;SDS011;32573;51.290;6.926;2023-07-02T03:00:06;9.32;;;3.33;;
46835;SDS011;32573;51.290;6.926;2023-07-02T03:02:36;7.00;;;3.38;;
46835;SDS011;32573;51.290;6.926;2023-07-02T03:05:05;7.63;;;3.38;;
46835;SDS011;32573;51.290;6.926;2023-07-02T03:07:34;7.18;;;3.05;;
46835;SDS011;32573;51.290;6.926;2023-07-02T03:10:03;7.03;;;3.10;;
46835;SDS011;32573;51.290;6.926;2023-07-02T03:12:33;6.53;;;2.70;;
46835;SDS011;32573;51.290;6.926;2023-07-02T03:15:01;7.85;;;3.22;;
46835;SDS011;32573;51.290;6.926;2023-07-02T03:17:31;6.78;;;2.83;;
46835;SDS011;32573;51.290;6.926;2023-07-02T03:20:00;8.02;;;3.42;;
46835;SDS011;32573;51.290;6.926;2023-07-02T03:22:29;8.27;;;3.83;;
46835;SDS011;32573;51.290;6.926;2023-07-02T03:24:57;8.57;;;3.45;;
46835;SDS011;32573;51.290;6.926;2023-07-02T03:27:26;7.25;;;3.33;;
46835;SDS011;32573;51.290;6.926;2023-07-02T03:29:54;7.22;;;3.45;;
46835;SDS011;32573;51.290;6.926;2023-07-02T03:32:23;9.30;;;3.42;;
46835;SDS011;32573;51.290;6.926;2023-07-02T03:34:53;8.27;;;3.60;;
46835;SDS011;32573;51.290;6.926;2023-07-02T03:37:21;8.63;;;3.58;;
46835;SDS011;32573;51.290;6.926;2023-07-02T03:39:50;7.40;;;3.40;;
46835;SDS011;32573;51.290;6.926;2023-07-02T03:42:18;8.98;;;3.80;;
46835;SDS011;32573;51.290;6.926;2023-07-02T03:44:47;10.43;;;4.47;;
46835;SDS011;32573;51.290;6.926;2023-07-02T03:47:15;8.80;;;3.63;;
46835;SDS011;32573;51.290;6.926;2023-07-02T03:49:46;9.15;;;3.80;;
46835;SDS011;32573;51.290;6.926;2023-07-02T03:52:17;8.68;;;4.25;;
46835;SDS011;32573;51.290;6.926;2023-07-02T03:54:45;8.68;;;3.75;;
46835;SDS011;32573;51.290;6.926;2023-07-02T03:57:14;7.90;;;3.85;;
46835;SDS011;32573;51.290;6.926;2023-07-02T03:59:42;8.13;;;3.88;;
46835;SDS011;32573;51.290;6.926;2023-07-02T04:02:11;10.43;;;4.40;;
46835;SDS011;32573;51.290;6.926;2023-07-02T04:04:39;9.30;;;4.13;;
46835;SDS011;32573;51.290;6.926;2023-07-02T04:07:08;8.75;;;4.05;;
46835;SDS011;32573;51.290;6.926;2023-07-02T04:09:38;9.25;;;4.43;;
46835;SDS011;32573;51.290;6.926;2023-07-02T04:12:07;9.77;;;4.68;;
46835;SDS011;32573;51.290;6.926;2023-07-02T04:14:37;7.35;;;3.60;;
46835;SDS011;32573;51.290;6.926;2023-07-02T04:17:06;11.63;;;5.13;;
46835;SDS011;32573;51.290;6.926;2023-07-02T04:19:35;8.40;;;4.25;;
46835;SDS011;32573;51.290;6.926;2023-07-02T04:22:03;11.15;;;4.60;;
46835;SDS011;32573;51.290;6.926;2023-07-02T04:24:32;9.13;;;4.45;;
46835;SDS011;32573;51.290;6.926;2023-07-02T04:27:02;10.23;;;4.82;;
46835;SDS011;32573;51.290;6.926;2023-07-02T04:29:52;11.68;;;4.88;;
46835;SDS011;32573;51.290;6.926;2023-07-02T04:32:21;9.30;;;4.28;;
46835;SDS011;32573;51.290;6.926;2023-07-02T04:34:50;10.50;;;4.40;;
46835;SDS011;32573;51.290;6.926;2023-07-02T04:37:18;9.65;;;4.25;;
46835;SDS011;32573;51.290;6.926;2023-07-02T04:39:49;8.98;;;4.20;;
46835;SDS011;32573;51.290;6.926;2023-07-02T04:42:19;10.35;;;4.30;;
46835;SDS011;32573;51.290;6.926;2023-07-02T04:44:47;11.57;;;4.65;;
46835;SDS011;32573;51.290;6.926;2023-07-02T04:47:16;8.27;;;4.18;;
46835;SDS011;32573;51.290;6.926;2023-07-02T04:49:44;11.27;;;4.80;;
46835;SDS011;32573;51.290;6.926;2023-07-02T04:52:13;10.85;;;4.40;;
46835;SDS011;32573;51.290;6.926;2023-07-02T04:54:41;10.75;;;4.28;;
46835;SDS011;32573;51.290;6.926;2023-07-02T04:57:10;11.15;;;5.03;;
46835;SDS011;32573;51.290;6.926;2023-07-02T04:59:42;11.68;;;5.22;;
46835;SDS011;32573;51.290;6.926;2023-07-02T05:02:10;12.98;;;5.00;;
46835;SDS011;32573;51.290;6.926;2023-07-02T05:04:39;12.20;;;5.65;;
46835;SDS011;32573;51.290;6.926;2023-07-02T05:07:08;12.38;;;5.57;;
46835;SDS011;32573;51.290;6.926;2023-07-02T05:09:36;10.80;;;4.78;;
46835;SDS011;32573;51.290;6.926;2023-07-02T05:12:05;11.88;;;5.70;;
46835;SDS011;32573;51.290;6.926;2023-07-02T05:14:34;12.25;;;5.57;;
46835;SDS011;32573;51.290;6.926;2023-07-02T05:17:04;10.45;;;4.55;;
46835;SDS011;32573;51.290;6.926;2023-07-02T05:19:33;11.75;;;5.05;;
46835;SDS011;32573;51.290;6.926;2023-07-02T05:22:01;9.98;;;4.75;;
46835;SDS011;32573;51.290;6.926;2023-07-02T05:24:30;10.18;;;5.03;;
46835;SDS011;32573;51.290;6.926;2023-07-02T05:26:58;13.32;;;5.65;;
46835;SDS011;32573;51.290;6.926;2023-07-02T05:29:27;11.60;;;5.38;;
46835;SDS011;32573;51.290;6.926;2023-07-02T05:31:55;12.07;;;5.75;;
46835;SDS011;32573;51.290;6.926;2023-07-02T05:34:25;12.13;;;5.57;;
46835;SDS011;32573;51.290;6.926;2023-07-02T05:36:54;11.45;;;5.20;;
46835;SDS011;32573;51.290;6.926;2023-07-02T05:39:25;11.98;;;5.40;;
46835;SDS011;32573;51.290;6.926;2023-07-02T05:41:53;12.68;;;5.88;;
46835;SDS011;32573;51.290;6.926;2023-07-02T05:44:22;12.20;;;5.45;;
46835;SDS011;32573;51.290;6.926;2023-07-02T05:46:50;10.82;;;5.00;;
46835;SDS011;32573;51.290;6.926;2023-07-02T05:49:19;12.50;;;6.05;;
46835;SDS011;32573;51.290;6.926;2023-07-02T05:51:49;9.38;;;4.57;;
46835;SDS011;32573;51.290;6.926;2023-07-02T05:54:18;12.23;;;5.47;;
46835;SDS011;32573;51.290;6.926;2023-07-02T05:56:46;13.75;;;5.70;;
46835;SDS011;32573;51.290;6.926;2023-07-02T05:59:15;13.02;;;5.65;;
46835;SDS011;32573;51.290;6.926;2023-07-02T06:01:45;13.07;;;5.53;;
46835;SDS011;32573;51.290;6.926;2023-07-02T06:04:14;10.75;;;5.15;;
46835;SDS011;32573;51.290;6.926;2023-07-02T06:06:43;12.10;;;5.32;;
46835;SDS011;32573;51.290;6.926;2023-07-02T06:09:13;12.00;;;5.05;;
46835;SDS011;32573;51.290;6.926;2023-07-02T06:11:41;11.27;;;5.38;;
46835;SDS011;32573;51.290;6.926;2023-07-02T06:14:10;12.30;;;5.47;;
46835;SDS011;32573;51.290;6.926;2023-07-02T06:16:38;13.38;;;6.13;;
46835;SDS011;32573;51.290;6.926;2023-07-02T06:19:08;12.23;;;5.82;;
46835;SDS011;32573;51.290;6.926;2023-07-02T06:21:37;14.40;;;6.70;;
46835;SDS011;32573;51.290;6.926;2023-07-02T06:24:06;11.27;;;5.13;;
46835;SDS011;32573;51.290;6.926;2023-07-02T06:26:35;11.45;;;5.22;;
46835;SDS011;32573;51.290;6.926;2023-07-02T06:29:04;11.07;;;5.13;;
46835;SDS011;32573;51.290;6.926;2023-07-02T06:31:32;13.68;;;5.70;;
46835;SDS011;32573;51.290;6.926;2023-07-02T06:34:01;11.27;;;5.22;;
46835;SDS011;32573;51.290;6.926;2023-07-02T06:36:29;13.27;;;5.53;;
46835;SDS011;32573;51.290;6.926;2023-07-02T06:38:58;12.10;;;5.40;;
46835;SDS011;32573;51.290;6.926;2023-07-02T06:41:26;11.10;;;5.13;;
46835;SDS011;32573;51.290;6.926;2023-07-02T06:43:56;15.50;;;6.57;;
46835;SDS011;32573;51.290;6.926;2023-07-02T06:46:25;12.95;;;5.63;;
46835;SDS011;32573;51.290;6.926;2023-07-02T06:48:54;11.75;;;5.75;;
46835;SDS011;32573;51.290;6.926;2023-07-02T06:51:23;11.52;;;5.13;;
46835;SDS011;32573;51.290;6.926;2023-07-02T06:53:53;12.88;;;5.40;;
46835;SDS011;32573;51.290;6.926;2023-07-02T06:56:22;13.98;;;5.63;;
46835;SDS011;32573;51.290;6.926;2023-07-02T06:58:50;10.98;;;4.82;;
46835;SDS011;32573;51.290;6.926;2023-07-02T07:01:20;13.32;;;5.18;;
46835;SDS011;32573;51.290;6.926;2023-07-02T07:03:49;13.40;;;5.93;;
46835;SDS011;32573;51.290;6.926;2023-07-02T07:06:17;12.52;;;5.60;;
46835;SDS011;32573;51.290;6.926;2023-07-02T07:08:47;12.27;;;5.72;;
46835;SDS011;32573;51.290;6.926;2023-07-02T07:11:15;13.90;;;5.28;;
46835;SDS011;32573;51.290;6.926;2023-07-02T07:13:44;11.35;;;5.35;;
46835;SDS011;32573;51.290;6.926;2023-07-02T07:16:12;12.70;;;5.70;;
46835;SDS011;32573;51.290;6.926;2023-07-02T07:18:43;13.77;;;5.40;;
46835;SDS011;32573;51.290;6.926;2023-07-02T07:21:12;14.07;;;5.30;;
46835;SDS011;32573;51.290;6.926;2023-07-02T07:23:40;12.27;;;4.97;;
46835;SDS011;32573;51.290;6.926;2023-07-02T07:26:09;13.27;;;5.65;;
46835;SDS011;32573;51.290;6.926;2023-07-02T07:28:37;11.90;;;5.80;;
46835;SDS011;32573;51.290;6.926;2023-07-02T07:31:06;13.27;;;5.53;;
46835;SDS011;32573;51.290;6.926;2023-07-02T07:33:35;13.02;;;5.40;;
46835;SDS011;32573;51.290;6.926;2023-07-02T07:36:05;14.30;;;5.20;;
46835;SDS011;32573;51.290;6.926;2023-07-02T07:38:33;10.50;;;4.80;;
46835;SDS011;32573;51.290;6.926;2023-07-02T07:41:02;11.25;;;4.53;;
46835;SDS011;32573;51.290;6.926;2023-07-02T07:43:31;10.98;;;5.32;;
46835;SDS011;32573;51.290;6.926;2023-07-02T07:45:59;14.23;;;6.00;;
46835;SDS011;32573;51.290;6.926;2023-07-02T07:48:28;11.98;;;5.20;;
46835;SDS011;32573;51.290;6.926;2023-07-02T07:50:56;11.52;;;4.70;;
46835;SDS011;32573;51.290;6.926;2023-07-02T07:53:26;10.55;;;4.90;;
46835;SDS011;32573;51.290;6.926;2023-07-02T07:55:55;10.38;;;4.65;;
46835;SDS011;32573;51.290;6.926;2023-07-02T07:58:23;13.95;;;5.57;;
46835;SDS011;32573;51.290;6.926;2023-07-02T08:00:55;13.07;;;5.25;;
46835;SDS011;32573;51.290;6.926;2023-07-02T08:03:24;11.40;;;5.10;;
46835;SDS011;32573;51.290;6.926;2023-07-02T08:05:52;10.50;;;4.82;;
46835;SDS011;32573;51.290;6.926;2023-07-02T08:08:21;9.65;;;4.63;;
46835;SDS011;32573;51.290;6.926;2023-07-02T08:10:51;13.82;;;5.35;;
46835;SDS011;32573;51.290;6.926;2023-07-02T08:13:19;9.55;;;4.93;;
46835;SDS011;32573;51.290;6.926;2023-07-02T08:15:48;10.20;;;4.80;;
46835;SDS011;32573;51.290;6.926;2023-07-02T08:18:16;12.45;;;4.85;;
46835;SDS011;32573;51.290;6.926;2023-07-02T08:20:45;10.38;;;4.75;;
46835;SDS011;32573;51.290;6.926;2023-07-02T08:23:14;10.40;;;4.03;;
46835;SDS011;32573;51.290;6.926;2023-07-02T08:25:42;11.43;;;4.47;;
46835;SDS011;32573;51.290;6.926;2023-07-02T08:28:12;8.82;;;4.15;;
46835;SDS011;32573;51.290;6.926;2023-07-02T08:30:41;12.57;;;4.97;;
46835;SDS011;32573;51.290;6.926;2023-07-02T08:33:09;12.98;;;4.70;;
46835;SDS011;32573;51.290;6.926;2023-07-02T08:35:38;11.98;;;4.90;;
46835;SDS011;32573;51.290;6.926;2023-07-02T08:38:06;11.88;;;5.10;;
46835;SDS011;32573;51.290;6.926;2023-07-02T08:40:35;10.45;;;5.00;;
46835;SDS011;32573;51.290;6.926;2023-07-02T08:43:04;14.65;;;5.28;;
46835;SDS011;32573;51.290;6.926;2023-07-02T08:45:34;12.02;;;4.80;;
46835;SDS011;32573;51.290;6.926;2023-07-02T08:48:02;11.13;;;4.50;;
46835;SDS011;32573;51.290;6.926;2023-07-02T08:50:32;12.23;;;4.70;;
46835;SDS011;32573;51.290;6.926;2023-07-02T08:53:00;9.07;;;4.05;;
46835;SDS011;32573;51.290;6.926;2023-07-02T08:55:29;8.75;;;4.30;;
46835;SDS011;32573;51.290;6.926;2023-07-02T08:57:57;11.07;;;4.40;;
46835;SDS011;32573;51.290;6.926;2023-07-02T09:00:27;11.90;;;4.63;;
46835;SDS011;32573;51.290;6.926;2023-07-02T09:02:59;10.95;;;5.00;;
46835;SDS011;32573;51.290;6.926;2023-07-02T09:05:47;11.05;;;4.93;;
46835;SDS011;32573;51.290;6.926;2023-07-02T09:08:22;12.38;;;5.07;;
46835;SDS011;32573;51.290;6.926;2023-07-02T09:10:51;10.50;;;4.90;;
46835;SDS011;32573;51.290;6.926;2023-07-02T09:13:20;14.38;;;5.13;;
46835;SDS011;32573;51.290;6.926;2023-07-02T09:15:48;11.02;;;4.30;;
46835;SDS011;32573;51.290;6.926;2023-07-02T09:18:19;9.63;;;4.10;;
46835;SDS011;32573;51.290;6.926;2023-07-02T09:20:49;12.88;;;5.40;;
46835;SDS011;32573;51.290;6.926;2023-07-02T09:23:19;12.00;;;4.68;;
46835;SDS011;32573;51.290;6.926;2023-07-02T09:25:47;10.15;;;4.13;;
46835;SDS011;32573;51.290;6.926;2023-07-02T09:28:17;10.43;;;4.32;;
46835;SDS011;32573;51.290;6.926;2023-07-02T09:30:50;9.38;;;3.88;;
46835;SDS011;32573;51.290;6.926;2023-07-02T09:33:22;11.43;;;4.65;;
46835;SDS011;32573;51.290;6.926;2023-07-02T09:35:52;10.43;;;4.65;;
46835;SDS011;32573;51.290;6.926;2023-07-02T09:38:20;8.80;;;3.80;;
46835;SDS011;32573;51.290;6.926;2023-07-02T09:40:50;9.43;;;3.95;;
46835;SDS011;32573;51.290;6.926;2023-07-02T09:43:19;8.43;;;3.65;;
46835;SDS011;32573;51.290;6.926;2023-07-02T09:45:49;10.00;;;4.45;;
46835;SDS011;32573;51.290;6.926;2023-07-02T09:48:19;8.30;;;4.00;;
46835;SDS011;32573;51.290;6.926;2023-07-02T09:50:52;7.88;;;4.00;;
46835;SDS011;32573;51.290;6.926;2023-07-02T09:53:22;9.93;;;4.43;;
46835;SDS011;32573;51.290;6.926;2023-07-02T09:55:50;7.60;;;3.10;;
46835;SDS011;32573;51.290;6.926;2023-07-02T09:58:19;11.90;;;4.65;;
46835;SDS011;32573;51.290;6.926;2023-07-02T10:00:48;9.52;;;4.50;;
46835;SDS011;32573;51.290;6.926;2023-07-02T10:03:28;11.00;;;4.60;;
46835;SDS011;32573;51.290;6.926;2023-07-02T10:06:04;13.52;;;5.30;;
46835;SDS011;32573;51.290;6.926;2023-07-02T10:08:33;12.32;;;5.13;;
46835;SDS011;32573;51.290;6.926;2023-07-02T10:11:08;12.77;;;4.63;;
46835;SDS011;32573;51.290;6.926;2023-07-02T10:13:38;8.57;;;4.10;;
46835;SDS011;32573;51.290;6.926;2023-07-02T10:16:08;12.23;;;4.80;;
46835;SDS011;32573;51.290;6.926;2023-07-02T10:18:38;12.25;;;4.72;;
46835;SDS011;32573;51.290;6.926;2023-07-02T10:21:13;13.50;;;5.18;;
46835;SDS011;32573;51.290;6.926;2023-07-02T10:23:42;9.32;;;4.32;;
46835;SDS011;32573;51.290;6.926;2023-07-02T10:26:13;10.15;;;4.20;;
46835;SDS011;32573;51.290;6.926;2023-07-02T10:28:43;10.15;;;4.57;;
46835;SDS011;32573;51.290;6.926;2023-07-02T10:31:23;10.10;;;4.95;;
46835;SDS011;32573;51.290;6.926;2023-07-02T10:33:54;10.52;;;4.25;;
46835;SDS011;32573;51.290;6.926;2023-07-02T10:36:23;9.52;;;4.53;;
46835;SDS011;32573;51.290;6.926;2023-07-02T10:38:53;9.52;;;4.20;;
46835;SDS011;32573;51.290;6.926;2023-07-02T10:41:24;8.95;;;4.15;;
46835;SDS011;32573;51.290;6.926;2023-07-02T10:43:54;8.85;;;3.85;;
46835;SDS011;32573;51.290;6.926;2023-07-02T10:46:33;8.75;;;4.05;;
46835;SDS011;32573;51.290;6.926;2023-07-02T10:49:03;9.82;;;3.85;;
46835;SDS011;32573;51.290;6.926;2023-07-02T10:51:35;9.25;;;3.90;;
46835;SDS011;32573;51.290;6.926;2023-07-02T10:54:04;9.15;;;4.28;;
46835;SDS011;32573;51.290;6.926;2023-07-02T10:56:33;11.57;;;4.60;;
46835;SDS011;32573;51.290;6.926;2023-07-02T10:59:02;9.35;;;3.70;;
46835;SDS011;32573;51.290;6.926;2023-07-02T11:01:31;6.90;;;3.78;;
46835;SDS011;32573;51.290;6.926;2023-07-02T11:04:01;7.90;;;3.40;;
46835;SDS011;32573;51.290;6.926;2023-07-02T11:06:32;11.10;;;3.70;;
46835;SDS011;32573;51.290;6.926;2023-07-02T11:09:01;9.98;;;3.60;;
46835;SDS011;32573;51.290;6.926;2023-07-02T11:11:30;10.10;;;3.72;;
46835;SDS011;32573;51.290;6.926;2023-07-02T11:13:59;8.88;;;3.97;;
46835;SDS011;32573;51.290;6.926;2023-07-02T11:16:28;6.72;;;2.80;;
46835;SDS011;32573;51.290;6.926;2023-07-02T11:19:07;9.93;;;3.00;;
46835;SDS011;32573;51.290;6.926;2023-07-02T11:21:37;9.65;;;3.80;;
46835;SDS011;32573;51.290;6.926;2023-07-02T11:24:07;8.57;;;3.50;;
46835;SDS011;32573;51.290;6.926;2023-07-02T11:26:36;6.85;;;2.70;;
46835;SDS011;32573;51.290;6.926;2023-07-02T11:29:07;6.22;;;2.80;;
46835;SDS011;32573;51.290;6.926;2023-07-02T11:31:39;6.97;;;3.33;;
46835;SDS011;32573;51.290;6.926;2023-07-02T11:34:15;8.48;;;3.13;;
46835;SDS011;32573;51.290;6.926;2023-07-02T11:36:45;6.78;;;2.75;;
46835;SDS011;32573;51.290;6.926;2023-07-02T11:39:14;8.27;;;3.30;;
46835;SDS011;32573;51.290;6.926;2023-07-02T11:41:43;9.00;;;3.03;;
46835;SDS011;32573;51.290;6.926;2023-07-02T11:44:13;7.60;;;3.30;;
46835;SDS011;32573;51.290;6.926;2023-07-02T11:46:42;8.13;;;2.80;;
46835;SDS011;32573;51.290;6.926;2023-07-02T11:49:11;6.55;;;3.25;;
46835;SDS011;32573;51.290;6.926;2023-07-02T11:51:41;7.25;;;3.17;;
46835;SDS011;32573;51.290;6.926;2023-07-02T11:54:15;6.35;;;2.95;;
46835;SDS011;32573;51.290;6.926;2023-07-02T11:56:45;7.72;;;3.40;;
46835;SDS011;32573;51.290;6.926;2023-07-02T11:59:14;7.90;;;2.83;;
46835;SDS011;32573;51.290;6.926;2023-07-02T12:01:42;7.38;;;3.03;;
46835;SDS011;32573;51.290;6.926;2023-07-02T12:04:11;7.50;;;2.90;;
46835;SDS011;32573;51.290;6.926;2023-07-02T12:06:41;7.63;;;3.33;;
46835;SDS011;32573;51.290;6.926;2023-07-02T12:09:10;6.38;;;2.90;;
46835;SDS011;32573;51.290;6.926;2023-07-02T12:11:38;7.40;;;3.30;;
46835;SDS011;32573;51.290;6.926;2023-07-02T12:14:07;5.90;;;2.85;;
46835;SDS011;32573;51.290;6.926;2023-07-02T12:16:35;8.02;;;3.20;;
46835;SDS011;32573;51.290;6.926;2023-07-02T12:19:04;9.10;;;3.38;;
46835;SDS011;32573;51.290;6.926;2023-07-02T12:21:32;7.60;;;3.30;;
46835;SDS011;32573;51.290;6.926;2023-07-02T12:24:03;6.85;;;3.20;;
46835;SDS011;32573;51.290;6.926;2023-07-02T12:29:04;7.68;;;3.45;;
46835;SDS011;32573;51.290;6.926;2023-07-02T12:31:32;6.55;;;2.97;;
46835;SDS011;32573;51.290;6.926;2023-07-02T12:34:01;7.35;;;3.50;;
46835;SDS011;32573;51.290;6.926;2023-07-02T12:36:30;7.68;;;3.45;;
46835;SDS011;32573;51.290;6.926;2023-07-02T12:38:58;9.00;;;3.75;;
46835;SDS011;32573;51.290;6.926;2023-07-02T12:41:28;8.50;;;3.40;;
46835;SDS011;32573;51.290;6.926;2023-07-02T12:43:58;7.80;;;3.65;;
46835;SDS011;32573;51.290;6.926;2023-07-02T12:46:26;7.80;;;3.45;;
46835;SDS011;32573;51.290;6.926;2023-07-02T12:48:55;7.82;;;3.30;;
46835;SDS011;32573;51.290;6.926;2023-07-02T12:51:23;7.53;;;3.35;;
46835;SDS011;32573;51.290;6.926;2023-07-02T12:53:52;10.60;;;4.53;;
46835;SDS011;32573;51.290;6.926;2023-07-02T12:56:20;7.30;;;3.60;;
46835;SDS011;32573;51.290;6.926;2023-07-02T12:58:50;9.80;;;3.88;;
46835;SDS011;32573;51.290;6.926;2023-07-02T13:01:19;7.90;;;3.38;;
46835;SDS011;32573;51.290;6.926;2023-07-02T13:03:47;8.25;;;3.40;;
46835;SDS011;32573;51.290;6.926;2023-07-02T13:06:16;7.47;;;3.30;;
46835;SDS011;32573;51.290;6.926;2023-07-02T13:08:45;7.93;;;3.38;;
46835;SDS011;32573;51.290;6.926;2023-07-02T13:11:14;8.32;;;3.67;;
46835;SDS011;32573;51.290;6.926;2023-07-02T13:13:42;7.85;;;3.50;;
46835;SDS011;32573;51.290;6.926;2023-07-02T13:16:12;7.00;;;3.38;;
46835;SDS011;32573;51.290;6.926;2023-07-02T13:18:41;8.57;;;3.78;;
46835;SDS011;32573;51.290;6.926;2023-07-02T13:21:10;8.10;;;3.40;;
46835;SDS011;32573;51.290;6.926;2023-07-02T13:23:38;9.02;;;3.67;;
46835;SDS011;32573;51.290;6.926;2023-07-02T13:26:07;7.30;;;3.40;;
46835;SDS011;32573;51.290;6.926;2023-07-02T13:28:35;7.00;;;3.15;;
46835;SDS011;32573;51.290;6.926;2023-07-02T13:31:04;6.95;;;3.13;;
46835;SDS011;32573;51.290;6.926;2023-07-02T13:33:34;8.85;;;3.63;;
46835;SDS011;32573;51.290;6.926;2023-07-02T13:36:02;8.63;;;3.85;;
46835;SDS011;32573;51.290;6.926;2023-07-02T13:38:31;7.28;;;3.40;;
46835;SDS011;32573;51.290;6.926;2023-07-02T13:41:00;7.60;;;3.58;;
46835;SDS011;32573;51.290;6.926;2023-07-02T13:43:28;6.60;;;3.00;;
46835;SDS011;32573;51.290;6.926;2023-07-02T13:45:56;7.72;;;3.35;;
46835;SDS011;32573;51.290;6.926;2023-07-02T13:48:25;7.70;;;3.13;;
46835;SDS011;32573;51.290;6.926;2023-07-02T13:50:56;6.57;;;3.20;;
46835;SDS011;32573;51.290;6.926;2023-07-02T13:53:25;6.68;;;2.90;;
46835;SDS011;32573;51.290;6.926;2023-07-02T13:55:53;9.32;;;3.40;;
46835;SDS011;32573;51.290;6.926;2023-07-02T13:58:22;7.25;;;3.20;;
46835;SDS011;32573;51.290;6.926;2023-07-02T14:00:58;5.53;;;2.90;;
46835;SDS011;32573;51.290;6.926;2023-07-02T14:03:26;10.18;;;3.80;;
46835;SDS011;32573;51.290;6.926;2023-07-02T14:05:55;6.97;;;2.92;;
46835;SDS011;32573;51.290;6.926;2023-07-02T14:08:23;7.13;;;3.35;;
46835;SDS011;32573;51.290;6.926;2023-07-02T14:10:52;8.68;;;3.78;;
46835;SDS011;32573;51.290;6.926;2023-07-02T14:13:20;6.63;;;3.20;;
46835;SDS011;32573;51.290;6.926;2023-07-02T14:15:49;8.13;;;3.63;;
46835;SDS011;32573;51.290;6.926;2023-07-02T14:18:20;8.23;;;3.38;;
46835;SDS011;32573;51.290;6.926;2023-07-02T14:20:48;8.02;;;3.65;;
46835;SDS011;32573;51.290;6.926;2023-07-02T14:23:17;8.27;;;3.38;;
46835;SDS011;32573;51.290;6.926;2023-07-02T14:25:45;10.65;;;4.30;;
46835;SDS011;32573;51.290;6.926;2023-07-02T14:28:14;7.95;;;3.58;;
46835;SDS011;32573;51.290;6.926;2023-07-02T14:30:42;9.07;;;3.78;;
46835;SDS011;32573;51.290;6.926;2023-07-02T14:33:11;7.78;;;3.58;;
46835;SDS011;32573;51.290;6.926;2023-07-02T14:35:42;8.05;;;3.53;;
46835;SDS011;32573;51.290;6.926;2023-07-02T14:38:10;9.20;;;3.83;;
46835;SDS011;32573;51.290;6.926;2023-07-02T14:40:38;8.15;;;3.67;;
46835;SDS011;32573;51.290;6.926;2023-07-02T14:43:07;8.40;;;3.70;;
46835;SDS011;32573;51.290;6.926;2023-07-02T14:45:41;10.90;;;4.00;;
46835;SDS011;32573;51.290;6.926;2023-07-02T14:48:12;8.68;;;4.10;;
46835;SDS011;32573;51.290;6.926;2023-07-02T14:50:47;10.90;;;4.20;;
46835;SDS011;32573;51.290;6.926;2023-07-02T14:53:17;7.00;;;3.90;;
46835;SDS011;32573;51.290;6.926;2023-07-02T14:55:46;8.15;;;3.83;;
46835;SDS011;32573;51.290;6.926;2023-07-02T14:58:17;9.93;;;4.03;;